createdAt,value
2022-11-24T00:02:10.633Z,68.69
2022-11-24T00:04:36.976Z,68.26
2022-11-24T00:07:03.231Z,68.45
2022-11-24T00:09:29.917Z,68.75
2022-11-24T00:11:56.252Z,68.94
2022-11-24T00:14:22.498Z,68.00
2022-11-24T00:16:48.818Z,68.17
2022-11-24T00:19:19.578Z,68.28
2022-11-24T00:21:46.214Z,67.80
2022-11-24T00:24:12.449Z,67.42
2022-11-24T00:26:38.680Z,67.55
2022-11-24T00:29:04.914Z,68.97
2022-11-24T00:31:31.195Z,69.29
2022-11-24T00:33:57.519Z,69.81
2022-11-24T00:36:23.761Z,70.19
2022-11-24T00:38:49.997Z,69.61
2022-11-24T00:41:16.239Z,69.59
2022-11-24T00:43:42.507Z,69.58
2022-11-24T00:46:08.798Z,69.55
2022-11-24T00:48:35.107Z,69.26
2022-11-24T00:51:01.356Z,68.81
2022-11-24T00:53:27.607Z,69.62
2022-11-24T00:55:53.854Z,69.57
2022-11-24T00:58:20.089Z,69.66
2022-11-24T01:00:46.326Z,68.95
2022-11-24T01:03:12.577Z,69.22
2022-11-24T01:05:38.858Z,69.24
2022-11-24T01:08:05.090Z,69.94
2022-11-24T01:10:31.318Z,69.47
2022-11-24T01:12:57.555Z,69.83
2022-11-24T01:15:23.809Z,69.60
2022-11-24T01:17:50.047Z,68.87
2022-11-24T01:20:16.282Z,68.45
2022-11-24T01:22:42.535Z,69.25
2022-11-24T01:25:08.785Z,69.10
2022-11-24T01:27:35.010Z,69.33
2022-11-24T01:30:01.280Z,69.15
2022-11-24T01:32:27.521Z,68.62
2022-11-24T01:34:53.784Z,68.95
2022-11-24T01:37:20.013Z,68.63
2022-11-24T01:39:46.266Z,68.62
2022-11-24T01:42:12.497Z,68.30
2022-11-24T01:44:38.754Z,68.03
2022-11-24T01:47:04.985Z,68.63
2022-11-24T01:49:31.226Z,68.48
2022-11-24T01:51:57.478Z,68.30
2022-11-24T01:54:23.723Z,68.62
2022-11-24T01:56:49.977Z,68.16
2022-11-24T01:59:16.234Z,68.40
2022-11-24T02:01:42.531Z,68.67
2022-11-24T02:04:08.786Z,68.57
2022-11-24T02:06:35.022Z,68.20
2022-11-24T02:09:01.287Z,68.59
2022-11-24T02:11:27.529Z,68.61
2022-11-24T02:13:53.769Z,68.79
2022-11-24T02:16:20.039Z,68.93
2022-11-24T02:18:46.309Z,69.50
2022-11-24T02:21:12.599Z,70.00
2022-11-24T02:23:38.902Z,70.62
2022-11-24T02:26:05.160Z,70.58
2022-11-24T02:28:31.418Z,70.42
2022-11-24T02:30:57.673Z,70.81
2022-11-24T02:33:23.981Z,70.40
2022-11-24T02:35:50.215Z,70.14
2022-11-24T02:38:16.442Z,70.73
2022-11-24T02:40:42.793Z,71.06
2022-11-24T02:43:09.044Z,71.07
2022-11-24T02:45:35.284Z,71.33
2022-11-24T02:48:01.542Z,71.22
2022-11-24T02:50:27.788Z,71.02
2022-11-24T02:52:54.023Z,71.03
2022-11-24T02:55:20.274Z,70.19
2022-11-24T02:57:46.528Z,69.84
2022-11-24T03:00:12.840Z,69.63
2022-11-24T03:02:39.171Z,69.78
2022-11-24T03:05:05.418Z,69.49
2022-11-24T03:07:31.715Z,69.10
2022-11-24T03:09:58.002Z,68.83
2022-11-24T03:12:24.249Z,69.21
2022-11-24T03:14:50.497Z,68.73
2022-11-24T03:17:16.761Z,68.89
2022-11-24T03:19:43.010Z,68.45
2022-11-24T03:22:09.255Z,68.60
2022-11-24T03:24:35.785Z,69.45
2022-11-24T03:27:02.195Z,69.61
2022-11-24T03:29:28.433Z,68.77
2022-11-24T03:31:54.661Z,68.78
2022-11-24T03:34:20.907Z,68.79
2022-11-24T03:36:47.162Z,68.56
2022-11-24T03:39:13.409Z,68.05
2022-11-24T03:41:39.646Z,67.81
2022-11-24T03:44:05.878Z,67.98
2022-11-24T03:46:32.158Z,67.88
2022-11-24T03:48:58.421Z,67.68
2022-11-24T03:51:24.682Z,67.37
2022-11-24T03:53:50.926Z,67.78
2022-11-24T03:56:17.191Z,67.82
2022-11-24T03:58:43.427Z,67.75
2022-11-24T04:01:09.653Z,67.54
2022-11-24T04:03:35.910Z,67.17
2022-11-24T04:06:02.149Z,67.59
2022-11-24T04:08:28.380Z,67.66
2022-11-24T04:10:54.614Z,66.85
2022-11-24T04:13:20.871Z,67.56
2022-11-24T04:15:47.160Z,68.05
2022-11-24T04:18:13.441Z,67.74
2022-11-24T04:20:39.929Z,67.54
2022-11-24T04:23:06.170Z,68.13
2022-11-24T04:25:32.413Z,67.57
2022-11-24T04:27:58.660Z,68.01
2022-11-24T04:30:24.894Z,68.35
2022-11-24T04:32:51.121Z,68.08
2022-11-24T04:35:17.357Z,67.76
2022-11-24T04:37:43.584Z,67.77
2022-11-24T04:40:09.836Z,67.56
2022-11-24T04:42:36.086Z,68.09
2022-11-24T04:45:02.318Z,67.95
2022-11-24T04:47:28.655Z,67.58
2022-11-24T04:49:54.897Z,68.19
2022-11-24T04:52:21.138Z,68.17
2022-11-24T04:54:47.372Z,68.68
2022-11-24T04:57:13.615Z,68.53
2022-11-24T04:59:39.873Z,68.50
2022-11-24T05:02:06.163Z,68.16
2022-11-24T05:04:32.786Z,68.03
2022-11-24T05:06:59.289Z,67.63
2022-11-24T05:09:36.929Z,67.96
2022-11-24T05:12:11.774Z,67.87
2022-11-24T05:14:38.021Z,68.21
2022-11-24T05:17:04.371Z,67.28
2022-11-24T05:19:32.472Z,67.41
2022-11-24T05:21:58.831Z,67.75
2022-11-24T05:24:25.066Z,67.84
2022-11-24T05:26:51.327Z,67.26
2022-11-24T05:29:17.574Z,67.42
2022-11-24T05:31:43.861Z,67.25
2022-11-24T05:34:10.171Z,67.18
2022-11-24T05:36:36.418Z,67.16
2022-11-24T05:39:02.647Z,67.36
2022-11-24T05:41:28.916Z,67.89
2022-11-24T05:43:55.149Z,67.50
2022-11-24T05:46:21.440Z,68.51
2022-11-24T05:48:47.698Z,69.34
2022-11-24T05:51:13.950Z,69.55
2022-11-24T05:53:40.186Z,68.89
2022-11-24T05:56:06.436Z,69.01
2022-11-24T05:58:32.687Z,68.86
2022-11-24T06:00:58.937Z,68.83
2022-11-24T06:03:25.172Z,69.16
2022-11-24T06:05:51.460Z,68.91
2022-11-24T06:08:17.794Z,68.48
2022-11-24T06:10:44.033Z,68.65
2022-11-24T06:13:10.338Z,68.18
2022-11-24T06:15:36.694Z,68.48
2022-11-24T06:18:02.956Z,68.13
2022-11-24T06:20:32.629Z,68.16
2022-11-24T06:22:59.402Z,67.91
2022-11-24T06:25:25.635Z,67.93
2022-11-24T06:27:51.871Z,68.12
2022-11-24T06:30:18.148Z,67.50
2022-11-24T06:32:49.157Z,67.78
2022-11-24T06:35:16.043Z,68.12
2022-11-24T06:37:42.269Z,68.74
2022-11-24T06:40:08.528Z,68.39
2022-11-24T06:42:34.757Z,67.97
2022-11-24T06:45:01.007Z,68.28
2022-11-24T06:47:27.243Z,67.45
2022-11-24T06:49:53.478Z,67.42
2022-11-24T06:52:19.724Z,67.51
2022-11-24T06:54:45.956Z,67.82
2022-11-24T06:57:12.202Z,67.18
2022-11-24T06:59:38.438Z,67.86
2022-11-24T07:02:04.690Z,66.96
2022-11-24T07:04:30.927Z,67.19
2022-11-24T07:06:57.178Z,66.85
2022-11-24T07:09:23.458Z,66.77
2022-11-24T07:11:49.685Z,66.77
2022-11-24T07:14:15.930Z,67.14
2022-11-24T07:16:42.226Z,67.30
2022-11-24T07:19:08.528Z,67.07
2022-11-24T07:21:34.775Z,66.89
2022-11-24T07:24:01.013Z,66.23
2022-11-24T07:26:27.243Z,66.63
2022-11-24T07:28:53.480Z,66.30
2022-11-24T07:31:19.774Z,65.83
2022-11-24T07:33:46.053Z,66.69
2022-11-24T07:36:12.297Z,66.75
2022-11-24T07:38:38.556Z,66.78
2022-11-24T07:41:04.807Z,66.92
2022-11-24T07:43:31.034Z,67.05
2022-11-24T07:45:57.358Z,66.66
2022-11-24T07:48:23.623Z,66.88
2022-11-24T07:50:55.323Z,67.81
2022-11-24T07:53:22.142Z,68.80
2022-11-24T07:55:48.389Z,68.43
2022-11-24T07:58:14.630Z,68.63
2022-11-24T08:00:40.878Z,68.24
2022-11-24T08:03:07.132Z,68.24
2022-11-24T08:05:33.373Z,68.44
2022-11-24T08:07:59.679Z,68.78
2022-11-24T08:10:25.973Z,67.88
2022-11-24T08:12:52.244Z,68.94
2022-11-24T08:15:18.498Z,67.58
2022-11-24T08:17:44.853Z,67.40
2022-11-24T08:20:11.082Z,67.34
2022-11-24T08:22:37.325Z,67.77
2022-11-24T08:25:03.564Z,66.91
2022-11-24T08:27:29.799Z,66.86
2022-11-24T08:29:56.035Z,66.31
2022-11-24T08:32:22.695Z,65.16
2022-11-24T08:34:48.993Z,65.42
2022-11-24T08:37:15.245Z,65.83
2022-11-24T08:39:41.524Z,64.90
2022-11-24T08:42:07.803Z,66.04
2022-11-24T08:44:34.477Z,66.09
2022-11-24T08:47:00.837Z,65.38
2022-11-24T08:49:27.084Z,64.75
2022-11-24T08:51:53.351Z,63.94
2022-11-24T08:54:19.588Z,65.51
2022-11-24T08:56:45.882Z,64.50
2022-11-24T08:59:12.163Z,63.98
2022-11-24T09:01:38.449Z,64.02
2022-11-24T09:04:04.760Z,63.74
2022-11-24T09:06:31.141Z,63.69
2022-11-24T09:08:57.425Z,63.11
2022-11-24T09:11:23.654Z,63.37
2022-11-24T09:13:50.173Z,62.84
2022-11-24T09:16:16.498Z,62.98
2022-11-24T09:18:42.798Z,63.13
2022-11-24T09:21:09.050Z,62.46
2022-11-24T09:23:35.286Z,62.77
2022-11-24T09:26:01.533Z,64.02
2022-11-24T09:28:27.781Z,63.11
2022-11-24T09:30:54.082Z,63.29
2022-11-24T09:33:20.403Z,63.29
2022-11-24T09:35:46.638Z,62.88
2022-11-24T09:38:12.882Z,62.38
2022-11-24T09:40:39.123Z,62.78
2022-11-24T09:43:05.375Z,62.07
2022-11-24T09:45:57.562Z,62.46
2022-11-24T09:48:17.823Z,62.41
2022-11-24T09:50:44.049Z,62.12
2022-11-24T09:53:10.286Z,62.21
2022-11-24T09:55:36.552Z,61.60
2022-11-24T09:58:02.811Z,60.91
2022-11-24T10:00:29.072Z,60.64
2022-11-24T10:02:55.378Z,60.33
2022-11-24T10:05:21.615Z,60.90
2022-11-24T10:07:47.974Z,61.16
2022-11-24T10:10:14.230Z,60.28
2022-11-24T10:12:41.006Z,60.26
2022-11-24T10:15:07.261Z,60.36
2022-11-24T10:17:33.510Z,60.55
2022-11-24T10:19:59.759Z,60.31
2022-11-24T10:22:26.023Z,60.85
2022-11-24T10:24:52.276Z,60.74
2022-11-24T10:27:18.527Z,60.19
2022-11-24T10:29:44.791Z,59.64
2022-11-24T10:32:11.031Z,59.10
2022-11-24T10:34:37.268Z,60.49
2022-11-24T10:37:03.501Z,59.30
2022-11-24T10:39:29.759Z,59.76
2022-11-24T10:41:55.991Z,59.37
2022-11-24T10:44:22.238Z,60.09
2022-11-24T10:46:48.509Z,59.95
2022-11-24T10:49:14.756Z,59.32
2022-11-24T10:51:41.009Z,58.99
2022-11-24T10:54:07.241Z,60.23
2022-11-24T10:56:33.470Z,60.19
2022-11-24T10:58:59.725Z,59.86
2022-11-24T11:01:26.034Z,59.22
2022-11-24T11:03:52.332Z,59.61
2022-11-24T11:06:18.573Z,59.88
2022-11-24T11:08:44.817Z,59.90
2022-11-24T11:11:11.070Z,59.73
2022-11-24T11:13:37.406Z,61.46
2022-11-24T11:16:03.730Z,59.76
2022-11-24T11:18:30.018Z,60.00
2022-11-24T11:20:56.273Z,59.94
2022-11-24T11:23:22.516Z,59.56
2022-11-24T11:25:48.752Z,59.37
2022-11-24T11:28:17.926Z,58.95
2022-11-24T11:36:17.152Z,59.48
2022-11-24T11:38:43.382Z,58.78
2022-11-24T11:41:09.614Z,59.80
2022-11-24T11:43:35.850Z,59.22
2022-11-24T11:46:02.216Z,58.58
2022-11-24T11:48:28.576Z,59.20
2022-11-24T11:53:41.055Z,58.84
2022-11-24T11:56:07.316Z,59.00
2022-11-24T11:58:33.559Z,58.63
2022-11-24T12:00:59.815Z,58.26
2022-11-24T12:03:26.228Z,58.41
2022-11-24T12:05:52.571Z,57.48
2022-11-24T12:08:21.299Z,57.99
2022-11-24T12:10:47.945Z,58.92
2022-11-24T12:13:14.290Z,57.63
2022-11-24T12:15:40.622Z,58.03
2022-11-24T12:18:06.957Z,59.26
2022-11-24T12:20:33.216Z,59.10
2022-11-24T12:22:59.445Z,58.60
2022-11-24T12:25:25.695Z,58.44
2022-11-24T12:27:51.927Z,57.87
2022-11-24T12:30:18.186Z,57.03
2022-11-24T12:32:44.420Z,57.70
2022-11-24T12:35:10.667Z,58.48
2022-11-24T12:37:36.925Z,58.23
2022-11-24T12:40:03.215Z,58.14
2022-11-24T12:42:29.474Z,58.11
2022-11-24T12:44:55.730Z,59.09
2022-11-24T12:47:21.965Z,58.14
2022-11-24T12:49:48.219Z,58.13
2022-11-24T12:52:14.478Z,56.98
2022-11-24T12:54:40.710Z,57.61
2022-11-24T12:57:06.961Z,57.78
2022-11-24T12:59:33.445Z,56.73
2022-11-24T13:01:59.910Z,56.07
2022-11-24T13:04:26.227Z,56.22
2022-11-24T13:06:52.463Z,56.70
2022-11-24T13:09:18.698Z,56.52
2022-11-24T13:11:44.945Z,53.07
2022-11-24T13:14:11.190Z,54.73
2022-11-24T13:16:48.741Z,53.82
2022-11-24T13:19:23.648Z,53.65
2022-11-24T13:21:49.874Z,53.11
2022-11-24T13:26:47.271Z,53.19
2022-11-24T13:29:24.969Z,53.18
2022-11-24T13:31:51.904Z,52.79
2022-11-24T13:34:18.169Z,52.46
2022-11-24T13:36:44.419Z,53.86
2022-11-24T13:39:10.646Z,53.42
2022-11-24T13:41:36.886Z,53.61
2022-11-24T13:44:03.110Z,53.47
2022-11-24T13:46:29.397Z,51.93
2022-11-24T13:48:55.771Z,52.16
2022-11-24T13:51:22.049Z,52.90
2022-11-24T13:53:48.290Z,52.61
2022-11-24T13:56:14.563Z,52.63
2022-11-24T13:58:40.805Z,52.05
2022-11-24T14:01:07.067Z,51.82
2022-11-24T14:03:33.305Z,52.39
2022-11-24T14:05:59.548Z,54.54
2022-11-24T14:08:25.793Z,53.57
2022-11-24T14:10:52.056Z,54.40
2022-11-24T14:13:18.299Z,52.90
2022-11-24T14:15:44.612Z,52.11
2022-11-24T14:18:10.874Z,52.01
2022-11-24T14:20:37.106Z,49.62
2022-11-24T14:23:03.331Z,52.25
2022-11-24T14:25:29.561Z,53.22
2022-11-24T14:27:55.829Z,53.94
2022-11-24T14:30:22.089Z,53.91
2022-11-24T14:32:48.337Z,54.35
2022-11-24T14:35:14.739Z,54.92
2022-11-24T14:37:41.025Z,54.46
2022-11-24T14:40:07.306Z,55.29
2022-11-24T14:42:33.599Z,54.77
2022-11-24T14:44:59.821Z,54.47
2022-11-24T14:47:30.846Z,54.02
2022-11-24T14:49:58.233Z,53.77
2022-11-24T14:52:24.524Z,54.86
2022-11-24T14:54:50.773Z,54.67
2022-11-24T14:57:17.006Z,55.57
2022-11-24T14:59:43.244Z,55.90
2022-11-24T15:02:09.547Z,56.17
2022-11-24T15:07:22.175Z,57.17
2022-11-24T15:09:48.458Z,57.38
2022-11-24T15:12:14.686Z,57.96
2022-11-24T15:14:40.914Z,57.93
2022-11-24T15:17:07.149Z,58.35
2022-11-24T15:19:33.385Z,58.54
2022-11-24T15:21:59.648Z,58.60
2022-11-24T15:24:25.903Z,58.75
2022-11-24T15:26:52.140Z,58.74
2022-11-24T15:29:18.393Z,58.80
2022-11-24T15:31:52.194Z,58.90
2022-11-24T15:34:18.966Z,59.34
2022-11-24T15:36:45.219Z,59.42
2022-11-24T15:39:11.494Z,59.42
2022-11-24T15:41:37.749Z,59.55
2022-11-24T15:44:03.985Z,60.04
2022-11-24T15:46:30.275Z,60.23
2022-11-24T15:48:56.549Z,60.13
2022-11-24T15:51:22.778Z,60.13
2022-11-24T15:53:49.028Z,60.37
2022-11-24T15:56:15.278Z,60.05
2022-11-24T15:58:41.505Z,60.60
2022-11-24T16:01:07.786Z,59.95
2022-11-24T16:03:49.641Z,60.21
2022-11-24T16:06:22.202Z,60.23
2022-11-24T16:08:50.696Z,60.18
2022-11-24T16:11:16.962Z,59.73
2022-11-24T16:13:48.381Z,60.27
2022-11-24T16:16:18.169Z,60.09
2022-11-24T16:18:44.461Z,60.48
2022-11-24T16:21:10.698Z,60.55
2022-11-24T16:23:36.946Z,60.09
2022-11-24T16:26:03.249Z,60.16
2022-11-24T16:28:29.495Z,60.45
2022-11-24T16:30:55.744Z,60.68
2022-11-24T16:33:21.997Z,59.59
2022-11-24T16:35:48.230Z,60.13
2022-11-24T16:38:14.471Z,59.80
2022-11-24T16:40:40.721Z,60.03
2022-11-24T16:43:06.958Z,59.85
2022-11-24T16:45:33.265Z,60.39
2022-11-24T16:47:59.530Z,60.84
2022-11-24T16:50:25.766Z,60.93
2022-11-24T16:52:51.999Z,61.12
2022-11-24T16:55:18.248Z,60.83
2022-11-24T16:57:44.518Z,61.45
2022-11-24T17:00:10.770Z,61.79
2022-11-24T17:02:37.118Z,60.81
2022-11-24T17:05:03.479Z,61.17
2022-11-24T17:07:29.784Z,61.16
2022-11-24T17:09:56.076Z,61.02
2022-11-24T17:12:22.330Z,61.43
2022-11-24T17:15:09.419Z,61.74
2022-11-24T17:17:34.777Z,61.73
2022-11-24T17:20:01.021Z,61.82
2022-11-24T17:22:27.250Z,62.18
2022-11-24T17:24:53.501Z,61.98
2022-11-24T17:27:19.729Z,62.23
2022-11-24T17:29:46.008Z,62.66
2022-11-24T17:32:12.316Z,62.38
2022-11-24T17:34:38.551Z,62.66
2022-11-24T17:37:04.802Z,61.68
2022-11-24T17:39:31.033Z,61.81
2022-11-24T17:41:57.280Z,62.61
2022-11-24T17:44:23.539Z,62.61
2022-11-24T17:46:49.782Z,62.81
2022-11-24T17:49:16.012Z,62.77
2022-11-24T17:51:42.241Z,62.98
2022-11-24T17:54:31.172Z,63.39
2022-11-24T17:56:54.692Z,62.96
2022-11-24T17:59:20.952Z,63.50
2022-11-24T18:01:47.213Z,63.29
2022-11-24T18:04:13.469Z,63.28
2022-11-24T18:06:39.730Z,63.07
2022-11-24T18:09:06.002Z,63.65
2022-11-24T18:11:32.432Z,63.45
2022-11-24T18:14:01.125Z,63.95
2022-11-24T18:16:28.164Z,63.61
2022-11-24T18:19:07.459Z,64.13
2022-11-24T18:21:34.452Z,64.13
2022-11-24T18:24:00.690Z,64.29
2022-11-24T18:26:26.935Z,64.41
2022-11-24T18:28:53.178Z,64.67
2022-11-24T18:31:19.439Z,64.64
2022-11-24T18:33:45.692Z,64.11
2022-11-24T18:36:11.925Z,64.35
2022-11-24T18:38:38.168Z,64.49
2022-11-24T18:41:04.408Z,64.14
2022-11-24T18:43:30.664Z,64.39
2022-11-24T18:45:56.937Z,64.03
2022-11-24T18:48:23.201Z,64.15
2022-11-24T18:50:49.469Z,64.79
2022-11-24T18:53:15.720Z,64.97
2022-11-24T18:55:41.980Z,64.94
2022-11-24T18:58:08.234Z,64.66
2022-11-24T19:00:34.480Z,64.41
2022-11-24T19:03:00.732Z,65.18
2022-11-24T19:05:26.992Z,64.95
2022-11-24T19:07:53.333Z,64.97
2022-11-24T19:10:19.632Z,64.95
2022-11-24T19:12:45.880Z,65.16
2022-11-24T19:15:12.135Z,64.86
2022-11-24T19:17:38.387Z,65.23
2022-11-24T19:20:04.622Z,65.23
2022-11-24T19:22:30.881Z,64.96
2022-11-24T19:24:57.117Z,65.12
2022-11-24T19:27:23.347Z,65.07
2022-11-24T19:29:49.597Z,65.21
2022-11-24T19:32:15.822Z,65.03
2022-11-24T19:34:42.056Z,65.16
2022-11-24T19:37:08.278Z,65.14
2022-11-24T19:39:34.625Z,65.29
2022-11-24T19:42:00.873Z,64.85
2022-11-24T19:44:27.102Z,64.93
2022-11-24T19:46:53.341Z,64.97
2022-11-24T19:49:19.589Z,64.85
2022-11-24T19:51:45.837Z,64.76
2022-11-24T19:54:12.083Z,64.56
2022-11-24T19:56:38.341Z,64.52
2022-11-24T19:59:04.587Z,64.09
2022-11-24T20:01:30.913Z,64.01
2022-11-24T20:03:57.232Z,64.52
2022-11-24T20:06:23.499Z,64.54
2022-11-24T20:08:49.760Z,64.82
2022-11-24T20:11:16.013Z,64.94
2022-11-24T20:13:42.261Z,65.02
2022-11-24T20:16:08.555Z,65.24
2022-11-24T20:18:40.431Z,64.78
2022-11-24T20:21:08.126Z,65.31
2022-11-24T20:23:34.350Z,65.29
2022-11-24T20:26:00.591Z,65.46
2022-11-24T20:28:26.822Z,65.59
2022-11-24T20:30:53.068Z,66.01
2022-11-24T20:33:19.308Z,65.29
2022-11-24T20:35:45.541Z,65.24
2022-11-24T20:38:11.797Z,65.60
2022-11-24T20:40:38.033Z,65.34
2022-11-24T20:43:04.282Z,65.63
2022-11-24T20:45:30.578Z,65.68
2022-11-24T20:47:56.865Z,66.01
2022-11-24T20:50:23.129Z,66.09
2022-11-24T20:52:49.363Z,66.29
2022-11-24T20:55:15.607Z,66.49
2022-11-24T20:57:41.867Z,65.97
2022-11-24T21:00:08.116Z,66.52
2022-11-24T21:02:34.399Z,66.61
2022-11-24T21:05:00.672Z,66.57
2022-11-24T21:07:27.038Z,66.63
2022-11-24T21:09:53.319Z,66.11
2022-11-24T21:12:19.564Z,66.29
2022-11-24T21:14:45.806Z,66.55
2022-11-24T21:17:12.059Z,66.50
2022-11-24T21:19:38.320Z,65.94
2022-11-24T21:22:04.557Z,66.48
2022-11-24T21:24:30.784Z,66.26
2022-11-24T21:26:57.021Z,65.85
2022-11-24T21:29:23.247Z,66.50
2022-11-24T21:31:49.544Z,66.95
2022-11-24T21:34:15.821Z,66.61
2022-11-24T21:36:42.075Z,66.60
2022-11-24T21:39:08.386Z,66.99
2022-11-24T21:41:34.660Z,66.97
2022-11-24T21:44:00.895Z,66.74
2022-11-24T21:46:27.129Z,66.63
2022-11-24T21:48:53.380Z,66.64
2022-11-24T21:51:19.610Z,66.52
2022-11-24T21:53:45.860Z,66.96
2022-11-24T21:56:12.227Z,66.85
2022-11-24T21:58:38.476Z,66.82
2022-11-24T22:01:04.777Z,67.15
2022-11-24T22:03:31.045Z,67.70
2022-11-24T22:05:57.289Z,67.87
2022-11-24T22:08:23.545Z,67.52
2022-11-24T22:10:49.809Z,66.55
2022-11-24T22:13:16.037Z,67.36
2022-11-24T22:15:42.277Z,67.35
2022-11-24T22:18:08.509Z,67.85
2022-11-24T22:20:34.733Z,67.31
2022-11-24T22:23:00.988Z,67.67
2022-11-24T22:25:27.233Z,67.06
2022-11-24T22:27:53.465Z,67.03
2022-11-24T22:30:19.699Z,66.83
2022-11-24T22:32:45.973Z,66.78
2022-11-24T22:35:12.217Z,66.90
2022-11-24T22:37:38.461Z,66.56
2022-11-24T22:40:04.698Z,66.34
2022-11-24T22:42:30.925Z,66.98
2022-11-24T22:44:57.180Z,66.39
2022-11-24T22:47:23.481Z,66.71
2022-11-24T22:49:49.709Z,66.27
2022-11-24T22:52:15.960Z,66.55
2022-11-24T22:54:42.205Z,66.27
2022-11-24T22:57:08.476Z,66.43
2022-11-24T22:59:34.752Z,66.37
2022-11-24T23:02:00.982Z,66.63
2022-11-24T23:04:27.283Z,66.16
2022-11-24T23:06:53.568Z,66.28
2022-11-24T23:09:19.829Z,67.25
2022-11-24T23:11:46.078Z,67.25
2022-11-24T23:14:12.321Z,67.21
2022-11-24T23:16:38.649Z,67.22
2022-11-24T23:19:04.953Z,67.09
2022-11-24T23:21:31.209Z,67.52
2022-11-24T23:23:57.441Z,67.32
2022-11-24T23:26:23.677Z,66.19
2022-11-24T23:28:49.934Z,65.54
2022-11-24T23:31:16.226Z,65.87
2022-11-24T23:33:42.511Z,65.82
2022-11-24T23:36:08.772Z,65.82
2022-11-24T23:38:35.018Z,66.44
2022-11-24T23:41:01.280Z,66.63
2022-11-24T23:43:27.541Z,66.69
2022-11-24T23:45:53.799Z,67.21
2022-11-24T23:48:20.090Z,66.98
2022-11-24T23:50:46.345Z,67.79
2022-11-24T23:53:12.621Z,67.79
2022-11-24T23:55:38.917Z,67.80
2022-11-24T23:58:05.143Z,67.73
